createdAt,value
2023-04-07T00:01:40.003Z,7.70
2023-04-07T00:04:06.929Z,7.80
2023-04-07T00:06:33.823Z,7.90
2023-04-07T00:09:00.997Z,8.00
2023-04-07T00:11:27.978Z,8.00
2023-04-07T00:13:55.160Z,8.10
2023-04-07T00:16:22.209Z,8.10
2023-04-07T00:18:49.025Z,8.10
2023-04-07T00:21:15.836Z,8.20
2023-04-07T00:23:42.935Z,8.20
2023-04-07T00:26:09.770Z,8.20
2023-04-07T00:28:36.611Z,8.30
2023-04-07T00:31:03.561Z,8.40
2023-04-07T00:33:30.746Z,8.40
2023-04-07T00:35:58.769Z,8.40
2023-04-07T00:38:25.708Z,8.50
2023-04-07T00:41:00.922Z,8.50
2023-04-07T00:43:27.927Z,8.60
2023-04-07T00:45:54.932Z,8.50
2023-04-07T00:48:22.148Z,8.50
2023-04-07T00:50:49.086Z,8.50
2023-04-07T00:53:16.360Z,8.50
2023-04-07T00:55:43.421Z,8.50
2023-04-07T00:58:10.387Z,8.40
2023-04-07T01:00:44.382Z,8.40
2023-04-07T01:03:32.227Z,8.30
2023-04-07T01:06:02.294Z,8.30
2023-04-07T01:08:47.148Z,8.20
2023-04-07T01:11:21.283Z,8.10
2023-04-07T01:13:52.393Z,8.10
2023-04-07T01:16:29.691Z,8.10
2023-04-07T01:19:05.013Z,7.90
2023-04-07T01:21:35.178Z,7.90
2023-04-07T01:24:13.878Z,7.90
2023-04-07T01:26:42.378Z,7.90
2023-04-07T01:29:41.559Z,7.80
2023-04-07T01:32:11.929Z,7.80
2023-04-07T01:34:41.070Z,7.80
2023-04-07T01:37:08.670Z,7.90
2023-04-07T01:39:37.483Z,7.90
2023-04-07T01:42:06.921Z,7.90
2023-04-07T01:44:34.596Z,7.90
2023-04-07T01:47:02.085Z,7.90
2023-04-07T01:49:30.982Z,7.90
2023-04-07T01:51:58.181Z,7.90
2023-04-07T01:54:26.104Z,7.70
2023-04-07T01:56:52.872Z,7.70
2023-04-07T01:59:19.788Z,7.60
2023-04-07T02:01:46.697Z,7.50
2023-04-07T02:04:28.432Z,7.50
2023-04-07T02:07:00.933Z,7.50
2023-04-07T02:09:31.704Z,7.50
2023-04-07T02:12:01.190Z,7.50
2023-04-07T02:14:28.797Z,7.50
2023-04-07T02:16:57.202Z,7.40
2023-04-07T02:19:24.944Z,7.40
2023-04-07T02:21:52.681Z,7.40
2023-04-07T02:24:22.462Z,7.30
2023-04-07T02:26:50.588Z,7.20
2023-04-07T02:29:17.470Z,7.10
2023-04-07T02:31:44.319Z,7.10
2023-04-07T02:34:11.152Z,7.20
2023-04-07T02:36:37.979Z,7.10
2023-04-07T02:39:04.945Z,7.10
2023-04-07T02:41:31.721Z,7.10
2023-04-07T02:43:58.618Z,7.00
2023-04-07T02:46:25.474Z,7.00
2023-04-07T02:48:52.363Z,7.00
2023-04-07T02:51:19.122Z,7.10
2023-04-07T02:53:45.868Z,7.10
2023-04-07T02:56:12.604Z,7.20
2023-04-07T02:58:39.414Z,7.20
2023-04-07T03:01:06.224Z,7.20
2023-04-07T03:03:33.123Z,7.10
2023-04-07T03:05:59.968Z,7.10
2023-04-07T03:08:27.484Z,7.10
2023-04-07T03:10:54.270Z,7.10
2023-04-07T03:13:21.409Z,7.20
2023-04-07T03:15:48.191Z,7.20
2023-04-07T03:18:14.970Z,7.30
2023-04-07T03:20:42.405Z,7.30
2023-04-07T03:23:09.245Z,7.30
2023-04-07T03:25:36.537Z,7.30
2023-04-07T03:28:03.435Z,7.30
2023-04-07T03:30:30.446Z,7.30
2023-04-07T03:32:57.275Z,7.30
2023-04-07T03:35:24.129Z,7.20
2023-04-07T03:37:50.901Z,7.20
2023-04-07T03:40:17.790Z,7.20
2023-04-07T03:42:46.619Z,7.10
2023-04-07T03:45:13.550Z,7.10
2023-04-07T03:47:40.357Z,7.00
2023-04-07T03:50:07.548Z,6.90
2023-04-07T03:52:34.298Z,6.80
2023-04-07T03:55:01.092Z,6.70
2023-04-07T03:57:28.013Z,6.70
2023-04-07T03:59:56.215Z,6.60
2023-04-07T04:02:23.284Z,6.50
2023-04-07T04:04:50.115Z,6.40
2023-04-07T04:07:16.957Z,6.40
2023-04-07T04:09:43.698Z,6.40
2023-04-07T04:12:10.609Z,6.30
2023-04-07T04:14:37.368Z,6.30
2023-04-07T04:17:05.506Z,6.10
2023-04-07T04:19:32.716Z,6.10
2023-04-07T04:21:59.496Z,6.10
2023-04-07T04:24:26.322Z,6.20
2023-04-07T04:26:53.058Z,6.30
2023-04-07T04:29:19.835Z,6.30
2023-04-07T04:31:46.693Z,6.30
2023-04-07T04:34:13.535Z,6.30
2023-04-07T04:36:41.580Z,6.30
2023-04-07T04:39:08.563Z,6.30
2023-04-07T04:41:35.441Z,6.30
2023-04-07T04:44:02.199Z,6.40
2023-04-07T04:46:28.966Z,6.50
2023-04-07T04:48:56.463Z,6.50
2023-04-07T04:51:23.252Z,6.50
2023-04-07T04:53:50.049Z,6.30
2023-04-07T04:56:17.116Z,6.30
2023-04-07T04:58:46.641Z,6.20
2023-04-07T05:01:14.046Z,6.20
2023-04-07T05:03:41.139Z,6.20
2023-04-07T05:06:08.224Z,6.20
2023-04-07T05:08:35.044Z,6.10
2023-04-07T05:11:01.840Z,6.00
2023-04-07T05:13:31.034Z,6.00
2023-04-07T05:15:57.905Z,6.10
2023-04-07T05:18:24.762Z,6.10
2023-04-07T05:20:51.505Z,6.20
2023-04-07T05:23:18.293Z,6.30
2023-04-07T05:25:45.071Z,6.40
2023-04-07T05:28:11.857Z,6.50
2023-04-07T05:30:38.606Z,6.40
2023-04-07T05:33:05.632Z,6.40
2023-04-07T05:35:32.461Z,6.50
2023-04-07T05:37:59.328Z,6.50
2023-04-07T05:40:26.088Z,6.50
2023-04-07T05:42:52.869Z,6.30
2023-04-07T05:45:19.996Z,6.20
2023-04-07T05:47:50.069Z,6.20
2023-04-07T05:50:17.983Z,6.00
2023-04-07T05:52:44.861Z,5.90
2023-04-07T05:55:11.687Z,5.80
2023-04-07T05:57:38.517Z,5.90
2023-04-07T06:00:05.896Z,6.00
2023-04-07T06:02:32.892Z,6.20
2023-04-07T06:04:59.806Z,6.40
2023-04-07T06:07:26.616Z,6.50
2023-04-07T06:09:54.047Z,6.60
2023-04-07T06:12:21.033Z,6.70
2023-04-07T06:14:54.804Z,6.80
2023-04-07T06:17:21.985Z,6.90
2023-04-07T06:19:48.879Z,6.90
2023-04-07T06:22:15.789Z,6.80
2023-04-07T06:24:42.602Z,6.90
2023-04-07T06:27:09.455Z,7.00
2023-04-07T06:29:36.672Z,7.10
2023-04-07T06:32:03.484Z,7.00
2023-04-07T06:34:30.469Z,7.00
2023-04-07T06:36:58.339Z,6.90
2023-04-07T06:39:27.566Z,6.90
2023-04-07T06:41:54.372Z,6.90
2023-04-07T06:44:21.150Z,7.00
2023-04-07T06:46:50.422Z,7.10
2023-04-07T06:49:17.407Z,7.10
2023-04-07T06:51:44.205Z,7.10
2023-04-07T06:54:14.877Z,7.10
2023-04-07T06:56:42.997Z,7.20
2023-04-07T06:59:10.287Z,7.00
2023-04-07T07:01:37.932Z,6.70
2023-04-07T07:04:06.689Z,6.60
2023-04-07T07:06:33.838Z,6.40
2023-04-07T07:09:02.746Z,6.50
2023-04-07T07:11:29.513Z,6.50
2023-04-07T07:13:56.312Z,6.60
2023-04-07T07:16:26.076Z,6.80
2023-04-07T07:18:52.875Z,6.90
2023-04-07T07:21:19.711Z,7.00
2023-04-07T07:23:46.833Z,6.90
2023-04-07T07:26:13.846Z,7.00
2023-04-07T07:28:40.740Z,7.00
2023-04-07T07:31:13.044Z,7.00
2023-04-07T07:33:41.544Z,7.00
2023-04-07T07:36:08.579Z,7.10
2023-04-07T07:38:37.443Z,7.10
2023-04-07T07:41:04.720Z,7.10
2023-04-07T07:43:31.482Z,7.20
2023-04-07T07:45:58.369Z,7.40
2023-04-07T07:48:25.377Z,7.70
2023-04-07T07:50:52.601Z,7.80
2023-04-07T07:53:19.437Z,7.70
2023-04-07T07:55:47.235Z,7.80
2023-04-07T07:58:14.155Z,8.20
2023-04-07T08:00:41.019Z,8.50
2023-04-07T08:03:08.015Z,8.60
2023-04-07T08:05:34.897Z,8.40
2023-04-07T08:08:01.877Z,8.50
2023-04-07T08:10:28.817Z,8.80
2023-04-07T08:12:55.924Z,8.80
2023-04-07T08:15:22.784Z,9.20
2023-04-07T08:17:49.719Z,9.40
2023-04-07T08:20:16.686Z,9.60
2023-04-07T08:22:43.466Z,10.00
2023-04-07T08:25:11.117Z,10.20
2023-04-07T08:27:37.934Z,9.90
2023-04-07T08:30:08.773Z,10.10
2023-04-07T08:32:40.707Z,10.30
2023-04-07T08:35:08.006Z,10.70
2023-04-07T08:37:36.101Z,11.00
2023-04-07T08:40:04.016Z,11.40
2023-04-07T08:42:32.790Z,11.60
2023-04-07T08:45:05.004Z,12.00
2023-04-07T08:47:33.965Z,11.90
2023-04-07T08:50:03.905Z,12.30
2023-04-07T08:52:55.145Z,12.70
2023-04-07T08:55:22.296Z,12.80
2023-04-07T08:57:49.492Z,12.90
2023-04-07T09:00:16.528Z,13.00
2023-04-07T09:02:48.988Z,13.20
2023-04-07T09:05:16.402Z,12.90
2023-04-07T09:07:43.433Z,12.20
2023-04-07T09:10:10.402Z,11.70
2023-04-07T09:12:37.931Z,12.10
2023-04-07T09:15:07.880Z,12.50
2023-04-07T09:17:34.931Z,12.80
2023-04-07T09:20:02.263Z,13.10
2023-04-07T09:22:37.417Z,13.10
2023-04-07T09:25:30.534Z,13.40
2023-04-07T09:28:02.547Z,13.30
2023-04-07T09:30:31.096Z,13.00
2023-04-07T09:32:59.194Z,13.00
2023-04-07T09:35:28.410Z,13.70
2023-04-07T09:38:07.197Z,14.00
2023-04-07T09:40:35.255Z,14.50
2023-04-07T09:43:04.122Z,14.70
2023-04-07T09:45:39.288Z,14.90
2023-04-07T09:48:07.922Z,15.20
2023-04-07T09:50:41.224Z,15.10
2023-04-07T09:53:08.638Z,15.30
2023-04-07T09:55:36.518Z,14.30
2023-04-07T09:58:04.841Z,13.80
2023-04-07T10:00:32.099Z,13.70
2023-04-07T10:02:59.485Z,13.60
2023-04-07T10:05:27.744Z,13.50
2023-04-07T10:07:55.074Z,14.00
2023-04-07T10:10:21.889Z,14.00
2023-04-07T10:12:50.152Z,13.80
2023-04-07T10:15:17.438Z,13.80
2023-04-07T10:17:49.672Z,13.90
2023-04-07T10:20:23.061Z,13.50
2023-04-07T10:22:51.677Z,13.20
2023-04-07T10:25:21.262Z,13.00
2023-04-07T10:27:53.405Z,13.10
2023-04-07T10:30:31.283Z,12.90
2023-04-07T10:32:59.057Z,13.00
2023-04-07T10:35:26.785Z,13.70
2023-04-07T10:38:08.740Z,13.70
2023-04-07T10:40:36.782Z,13.40
2023-04-07T10:43:05.137Z,13.30
2023-04-07T10:45:51.961Z,13.50
2023-04-07T10:48:20.314Z,13.90
2023-04-07T10:51:08.451Z,13.90
2023-04-07T10:53:35.415Z,13.90
2023-04-07T10:56:02.819Z,14.10
2023-04-07T10:58:30.864Z,14.10
2023-04-07T11:01:03.939Z,13.80
2023-04-07T11:03:34.085Z,13.80
2023-04-07T11:06:09.102Z,13.20
2023-04-07T11:08:36.921Z,13.00
2023-04-07T11:11:11.380Z,13.10
2023-04-07T11:13:41.935Z,13.30
2023-04-07T11:16:09.537Z,13.50
2023-04-07T11:18:37.654Z,13.10
2023-04-07T11:21:08.318Z,12.90
2023-04-07T11:23:43.131Z,12.90
2023-04-07T11:26:12.772Z,12.70
2023-04-07T11:28:52.489Z,12.80
2023-04-07T11:31:24.664Z,13.00
2023-04-07T11:33:59.495Z,13.20
2023-04-07T11:36:34.063Z,13.30
2023-04-07T11:39:02.497Z,13.40
2023-04-07T11:41:32.952Z,13.50
2023-04-07T11:44:14.522Z,13.60
2023-04-07T11:46:58.747Z,13.60
2023-04-07T11:49:31.900Z,13.50
2023-04-07T11:52:04.060Z,13.60
2023-04-07T11:54:42.465Z,13.50
2023-04-07T11:57:12.510Z,13.70
2023-04-07T11:59:40.931Z,13.70
2023-04-07T12:02:08.425Z,13.60
2023-04-07T12:04:37.866Z,13.80
2023-04-07T12:07:09.336Z,13.80
2023-04-07T12:09:37.527Z,14.00
2023-04-07T12:12:06.486Z,14.00
2023-04-07T12:14:33.756Z,14.10
2023-04-07T12:17:03.280Z,14.30
2023-04-07T12:19:34.889Z,14.40
2023-04-07T12:22:01.767Z,14.30
2023-04-07T12:24:28.685Z,14.50
2023-04-07T12:26:56.268Z,14.50
2023-04-07T12:29:23.215Z,14.50
2023-04-07T12:31:51.298Z,14.50
2023-04-07T12:34:18.831Z,14.70
2023-04-07T12:36:45.673Z,14.70
2023-04-07T12:39:12.679Z,14.50
2023-04-07T12:41:39.833Z,14.40
2023-04-07T12:44:06.699Z,14.40
2023-04-07T12:46:33.673Z,14.40
2023-04-07T12:49:01.229Z,14.40
2023-04-07T12:51:28.625Z,14.50
2023-04-07T12:53:55.409Z,14.40
2023-04-07T12:56:22.520Z,14.30
2023-04-07T12:58:49.372Z,14.20
2023-04-07T13:01:16.829Z,14.00
2023-04-07T13:03:44.259Z,14.10
2023-04-07T13:06:11.850Z,14.10
2023-04-07T13:08:41.725Z,14.30
2023-04-07T13:11:08.491Z,14.10
2023-04-07T13:13:35.496Z,14.10
2023-04-07T13:16:02.721Z,14.20
2023-04-07T13:18:29.533Z,14.20
2023-04-07T13:21:26.448Z,14.20
2023-04-07T13:23:44.077Z,13.90
2023-04-07T13:26:29.977Z,13.90
2023-04-07T13:28:56.839Z,14.00
2023-04-07T13:31:23.800Z,14.10
2023-04-07T13:33:51.288Z,14.20
2023-04-07T13:36:18.641Z,14.20
2023-04-07T13:38:46.318Z,14.20
2023-04-07T13:41:13.052Z,14.20
2023-04-07T13:43:39.865Z,14.00
2023-04-07T13:46:17.226Z,14.00
2023-04-07T13:48:51.886Z,14.00
2023-04-07T13:51:19.248Z,13.70
2023-04-07T13:53:46.911Z,13.60
2023-04-07T13:56:13.852Z,13.40
2023-04-07T13:58:40.594Z,13.30
2023-04-07T14:01:07.433Z,13.30
2023-04-07T14:03:35.393Z,13.10
2023-04-07T14:06:02.953Z,13.00
2023-04-07T14:08:29.839Z,12.70
2023-04-07T14:10:56.584Z,12.40
2023-04-07T14:13:23.794Z,12.20
2023-04-07T14:15:50.655Z,12.00
2023-04-07T14:18:17.720Z,12.00
2023-04-07T14:20:44.588Z,11.90
2023-04-07T14:23:11.759Z,11.90
2023-04-07T14:25:38.727Z,12.00
2023-04-07T14:28:05.507Z,12.00
2023-04-07T14:30:36.245Z,12.30
2023-04-07T14:33:05.012Z,12.30
2023-04-07T14:35:32.205Z,12.40
2023-04-07T14:37:59.140Z,12.20
2023-04-07T14:40:25.968Z,12.30
2023-04-07T14:45:21.440Z,12.60
2023-04-07T14:47:48.291Z,12.60
2023-04-07T14:50:15.116Z,12.60
2023-04-07T14:52:42.017Z,12.80
2023-04-07T14:55:08.920Z,12.90
2023-04-07T14:57:35.726Z,12.90
2023-04-07T15:00:04.572Z,12.90
2023-04-07T15:02:32.689Z,12.90
2023-04-07T15:04:59.966Z,12.70
2023-04-07T15:07:26.788Z,12.40
2023-04-07T15:09:53.995Z,12.30
2023-04-07T15:12:20.857Z,12.30
2023-04-07T15:14:51.348Z,12.30
2023-04-07T15:17:18.178Z,12.40
2023-04-07T15:19:44.983Z,12.40
2023-04-07T15:22:11.725Z,12.30
2023-04-07T15:24:38.461Z,12.20
2023-04-07T15:27:06.074Z,12.30
2023-04-07T15:29:32.896Z,12.10
2023-04-07T15:31:59.683Z,11.90
2023-04-07T15:34:26.480Z,11.70
2023-04-07T15:36:53.301Z,11.70
2023-04-07T15:39:20.061Z,11.50
2023-04-07T15:41:46.850Z,11.30
2023-04-07T15:44:18.749Z,11.30
2023-04-07T15:46:46.058Z,11.30
2023-04-07T15:49:12.884Z,11.40
2023-04-07T15:51:39.924Z,11.50
2023-04-07T15:54:06.674Z,11.60
2023-04-07T15:56:33.867Z,11.60
2023-04-07T15:59:00.717Z,11.60
2023-04-07T16:01:28.405Z,11.60
2023-04-07T16:03:55.452Z,11.60
2023-04-07T16:06:22.908Z,11.70
2023-04-07T16:08:49.668Z,11.80
2023-04-07T16:11:16.571Z,11.90
2023-04-07T16:13:43.357Z,12.00
2023-04-07T16:16:10.515Z,11.90
2023-04-07T16:18:37.353Z,11.90
2023-04-07T16:21:07.954Z,11.90
2023-04-07T16:23:34.734Z,11.90
2023-04-07T16:26:01.530Z,11.90
2023-04-07T16:28:28.306Z,11.90
2023-04-07T16:30:55.073Z,11.80
2023-04-07T16:33:23.760Z,11.80
2023-04-07T16:35:52.209Z,11.70
2023-04-07T16:38:19.039Z,11.70
2023-04-07T16:41:02.868Z,11.70
2023-04-07T16:43:30.539Z,11.70
2023-04-07T16:46:00.051Z,11.60
2023-04-07T16:48:27.293Z,11.60
2023-04-07T16:50:54.073Z,11.50
2023-04-07T16:53:21.555Z,11.50
2023-04-07T16:55:48.642Z,11.60
2023-04-07T16:58:19.104Z,11.60
2023-04-07T17:00:46.436Z,11.60
2023-04-07T17:03:15.417Z,11.40
2023-04-07T17:05:44.628Z,11.10
2023-04-07T17:08:11.738Z,11.10
2023-04-07T17:10:38.517Z,11.20
2023-04-07T17:13:05.525Z,11.10
2023-04-07T17:15:37.080Z,11.10
2023-04-07T17:18:04.211Z,11.00
2023-04-07T17:20:31.051Z,11.00
2023-04-07T17:22:57.832Z,11.00
2023-04-07T17:25:24.936Z,11.00
2023-04-07T17:27:54.950Z,10.90
2023-04-07T17:30:22.053Z,10.80
2023-04-07T17:32:53.677Z,10.70
2023-04-07T17:35:21.497Z,10.80
2023-04-07T17:37:48.636Z,10.80
2023-04-07T17:40:15.470Z,10.80
2023-04-07T17:42:42.917Z,10.60
2023-04-07T17:45:10.777Z,10.60
2023-04-07T17:47:37.760Z,10.50
2023-04-07T17:50:04.986Z,10.60
2023-04-07T17:52:31.782Z,10.60
2023-04-07T17:54:59.317Z,10.50
2023-04-07T17:57:26.193Z,10.60
2023-04-07T17:59:52.961Z,10.50
2023-04-07T18:02:19.922Z,10.50
2023-04-07T18:04:46.910Z,10.60
2023-04-07T18:07:13.988Z,10.70
2023-04-07T18:09:41.750Z,10.80
2023-04-07T18:12:09.009Z,10.80
2023-04-07T18:14:35.828Z,10.80
2023-04-07T18:17:02.569Z,10.90
2023-04-07T18:19:30.205Z,10.90
2023-04-07T18:21:57.036Z,10.90
2023-04-07T18:24:23.855Z,10.90
2023-04-07T18:26:56.951Z,10.80
2023-04-07T18:29:23.800Z,10.70
2023-04-07T18:31:50.843Z,10.80
2023-04-07T18:34:17.678Z,10.80
2023-04-07T18:36:44.529Z,10.80
2023-04-07T18:39:11.462Z,10.80
2023-04-07T18:41:41.897Z,10.70
2023-04-07T18:44:08.633Z,10.70
2023-04-07T18:46:35.476Z,10.70
2023-04-07T18:49:02.709Z,10.70
2023-04-07T18:51:29.653Z,10.80
2023-04-07T18:53:56.544Z,10.90
2023-04-07T18:56:25.303Z,10.90
2023-04-07T18:58:52.110Z,10.90
2023-04-07T19:01:19.036Z,10.90
2023-04-07T19:03:46.131Z,10.90
2023-04-07T19:06:16.816Z,10.90
2023-04-07T19:08:43.688Z,10.90
2023-04-07T19:11:10.604Z,11.00
2023-04-07T19:13:37.400Z,10.90
2023-04-07T19:16:04.314Z,10.90
2023-04-07T19:18:31.922Z,11.00
2023-04-07T19:20:58.752Z,10.90
2023-04-07T19:23:25.711Z,10.90
2023-04-07T19:25:52.530Z,10.80
2023-04-07T19:28:19.338Z,10.80
2023-04-07T19:30:46.105Z,10.80
2023-04-07T19:33:12.910Z,10.80
2023-04-07T19:35:39.785Z,10.80
2023-04-07T19:38:07.235Z,10.70
2023-04-07T19:40:33.971Z,10.70
2023-04-07T19:43:00.889Z,10.70
2023-04-07T19:45:27.844Z,10.60
2023-04-07T19:47:54.921Z,10.60
2023-04-07T19:50:21.790Z,10.70
2023-04-07T19:52:50.492Z,10.70
2023-04-07T19:55:17.405Z,10.70
2023-04-07T19:57:44.216Z,10.80
2023-04-07T20:00:11.698Z,10.80
2023-04-07T20:02:38.786Z,10.80
2023-04-07T20:05:06.044Z,10.80
2023-04-07T20:07:33.807Z,10.80
2023-04-07T20:10:01.111Z,10.80
2023-04-07T20:12:28.011Z,10.80
2023-04-07T20:14:54.841Z,10.90
2023-04-07T20:17:21.666Z,10.90
2023-04-07T20:19:48.525Z,10.90
2023-04-07T20:22:15.707Z,10.90
2023-04-07T20:24:42.602Z,10.90
2023-04-07T20:27:09.434Z,10.90
2023-04-07T20:29:36.712Z,10.90
2023-04-07T20:32:03.624Z,10.90
2023-04-07T20:34:30.514Z,10.90
2023-04-07T20:36:58.103Z,10.90
2023-04-07T20:39:24.924Z,10.90
2023-04-07T20:41:51.706Z,10.90
2023-04-07T20:44:18.520Z,10.90
2023-04-07T20:46:46.895Z,10.90
2023-04-07T20:49:13.751Z,10.80
2023-04-07T20:51:40.977Z,10.80
2023-04-07T20:54:07.919Z,10.80
2023-04-07T20:56:34.880Z,10.80
2023-04-07T20:59:01.816Z,10.80
2023-04-07T21:01:28.722Z,10.80
2023-04-07T21:03:55.722Z,10.70
2023-04-07T21:06:22.553Z,10.80
2023-04-07T21:08:49.608Z,10.70
2023-04-07T21:11:16.575Z,10.70
2023-04-07T21:13:43.413Z,10.70
2023-04-07T21:16:10.796Z,10.60
2023-04-07T21:18:37.634Z,10.50
2023-04-07T21:21:04.598Z,10.40
2023-04-07T21:23:31.983Z,10.30
2023-04-07T21:26:03.249Z,10.20
2023-04-07T21:28:30.307Z,10.20
2023-04-07T21:30:57.305Z,10.00
2023-04-07T21:33:24.477Z,9.90
2023-04-07T21:35:52.060Z,9.80
2023-04-07T21:38:19.187Z,9.80
2023-04-07T21:40:46.027Z,9.80
2023-04-07T21:43:13.212Z,9.70
2023-04-07T21:45:40.035Z,9.60
2023-04-07T21:48:07.076Z,9.60
2023-04-07T21:50:34.631Z,9.50
2023-04-07T21:53:01.605Z,9.50
2023-04-07T21:55:28.511Z,9.40
2023-04-07T21:57:55.383Z,9.40
2023-04-07T22:00:22.621Z,9.30
2023-04-07T22:02:49.919Z,9.30
2023-04-07T22:05:17.490Z,9.20
2023-04-07T22:07:45.755Z,9.10
2023-04-07T22:10:13.055Z,9.10
2023-04-07T22:12:40.102Z,9.20
2023-04-07T22:15:08.700Z,9.10
2023-04-07T22:17:35.722Z,9.10
2023-04-07T22:20:02.742Z,9.00
2023-04-07T22:22:29.529Z,9.00
2023-04-07T22:24:56.469Z,8.90
2023-04-07T22:27:23.376Z,8.90
2023-04-07T22:29:50.515Z,8.90
2023-04-07T22:32:17.297Z,8.90
2023-04-07T22:34:44.613Z,8.80
2023-04-07T22:37:11.477Z,8.80
2023-04-07T22:39:38.549Z,8.80
2023-04-07T22:42:05.838Z,8.80
2023-04-07T22:44:32.645Z,8.70
2023-04-07T22:46:59.568Z,8.70
2023-04-07T22:49:26.483Z,8.70
2023-04-07T22:51:55.236Z,8.70
2023-04-07T22:54:22.141Z,8.60
2023-04-07T22:56:49.087Z,8.60
2023-04-07T22:59:15.928Z,8.60
2023-04-07T23:01:42.873Z,8.60
2023-04-07T23:04:09.740Z,8.50
2023-04-07T23:06:36.579Z,8.50
2023-04-07T23:09:03.402Z,8.50
2023-04-07T23:11:30.256Z,8.50
2023-04-07T23:13:57.142Z,8.40
2023-04-07T23:16:23.961Z,8.40
2023-04-07T23:18:51.005Z,8.30
2023-04-07T23:21:17.953Z,8.30
2023-04-07T23:23:44.793Z,8.30
2023-04-07T23:26:11.523Z,8.30
2023-04-07T23:28:38.319Z,8.20
2023-04-07T23:31:06.727Z,8.20
2023-04-07T23:33:33.697Z,8.20
2023-04-07T23:36:00.642Z,8.10
2023-04-07T23:38:27.594Z,8.10
2023-04-07T23:40:54.444Z,8.10
2023-04-07T23:43:21.211Z,8.10
2023-04-07T23:45:48.177Z,8.10
2023-04-07T23:48:15.589Z,8.10
2023-04-07T23:50:42.444Z,8.10
2023-04-07T23:53:09.269Z,8.10
2023-04-07T23:55:37.223Z,8.10
2023-04-07T23:58:04.068Z,8.10
